createdAt,value
2018-07-10T00:03:21.737Z,17.18
2018-07-10T00:06:16.947Z,17.13
2018-07-10T00:08:56.436Z,17.12
2018-07-10T00:11:30.630Z,17.12
2018-07-10T00:14:01.392Z,17.12
2018-07-10T00:16:31.995Z,17.07
2018-07-10T00:19:02.687Z,17.04
2018-07-10T00:21:33.362Z,17.09
2018-07-10T00:24:03.823Z,17.10
2018-07-10T00:26:34.317Z,17.13
2018-07-10T00:29:04.788Z,17.10
2018-07-10T00:31:35.560Z,17.09
2018-07-10T00:34:06.556Z,17.06
2018-07-10T00:36:37.131Z,16.98
2018-07-10T00:39:09.970Z,16.94
2018-07-10T00:41:41.643Z,16.88
2018-07-10T00:44:12.456Z,16.89
2018-07-10T00:46:42.791Z,17.01
2018-07-10T00:49:13.507Z,16.80
2018-07-10T00:51:44.185Z,16.66
2018-07-10T00:54:14.876Z,16.69
2018-07-10T00:56:45.441Z,16.64
2018-07-10T00:59:16.458Z,16.58
2018-07-10T01:01:47.056Z,16.51
2018-07-10T01:04:17.538Z,16.40
2018-07-10T01:06:48.232Z,16.35
2018-07-10T01:09:19.009Z,16.43
2018-07-10T01:11:49.624Z,16.39
2018-07-10T01:14:20.216Z,16.34
2018-07-10T01:16:50.830Z,16.29
2018-07-10T01:19:21.411Z,16.27
2018-07-10T01:21:52.017Z,16.28
2018-07-10T01:24:22.717Z,16.28
2018-07-10T01:26:53.371Z,16.32
2018-07-10T01:29:29.056Z,16.20
2018-07-10T01:31:59.732Z,16.22
2018-07-10T01:34:30.444Z,16.29
2018-07-10T01:37:01.213Z,16.26
2018-07-10T01:39:31.979Z,16.27
2018-07-10T01:42:02.971Z,16.31
2018-07-10T01:44:34.246Z,16.34
2018-07-10T01:47:05.003Z,16.41
2018-07-10T01:49:35.408Z,16.38
2018-07-10T01:52:06.082Z,16.38
2018-07-10T01:54:36.398Z,16.31
2018-07-10T01:57:07.528Z,16.33
2018-07-10T01:59:38.123Z,15.76
2018-07-10T02:02:08.829Z,16.22
2018-07-10T02:04:39.791Z,16.33
2018-07-10T02:07:10.479Z,16.30
2018-07-10T02:09:41.968Z,16.32
2018-07-10T02:12:12.577Z,16.34
2018-07-10T02:14:43.282Z,16.30
2018-07-10T02:17:13.936Z,16.27
2018-07-10T02:19:44.805Z,16.23
2018-07-10T02:22:15.583Z,16.21
2018-07-10T02:24:46.390Z,16.16
2018-07-10T02:27:16.963Z,16.12
2018-07-10T02:29:47.608Z,16.13
2018-07-10T02:32:18.204Z,16.19
2018-07-10T02:34:48.671Z,16.18
2018-07-10T02:37:19.441Z,16.18
2018-07-10T02:39:50.107Z,16.16
2018-07-10T02:42:20.925Z,16.23
2018-07-10T02:44:51.494Z,16.11
2018-07-10T02:47:22.375Z,16.03
2018-07-10T02:49:52.939Z,16.01
2018-07-10T02:52:23.603Z,16.05
2018-07-10T02:54:54.186Z,16.05
2018-07-10T02:57:24.995Z,16.06
2018-07-10T02:59:55.544Z,16.05
2018-07-10T03:02:28.335Z,16.01
2018-07-10T03:05:04.718Z,15.97
2018-07-10T03:07:36.686Z,16.00
2018-07-10T03:10:07.281Z,15.98
2018-07-10T03:12:38.042Z,16.05
2018-07-10T03:15:13.364Z,16.05
2018-07-10T03:17:44.389Z,16.09
2018-07-10T03:20:15.287Z,16.11
2018-07-10T03:22:45.944Z,16.11
2018-07-10T03:25:16.411Z,16.19
2018-07-10T03:27:46.886Z,16.37
2018-07-10T03:30:17.578Z,16.42
2018-07-10T03:32:48.263Z,16.37
2018-07-10T03:35:18.995Z,16.44
2018-07-10T03:37:49.595Z,16.78
2018-07-10T03:40:20.526Z,17.13
2018-07-10T03:42:51.743Z,17.61
2018-07-10T03:45:22.419Z,18.03
2018-07-10T03:47:52.957Z,18.08
2018-07-10T03:50:23.510Z,18.20
2018-07-10T03:52:55.356Z,18.63
2018-07-10T03:55:26.273Z,19.11
2018-07-10T03:57:58.442Z,19.32
2018-07-10T04:00:30.168Z,19.54
2018-07-10T04:03:00.790Z,19.64
2018-07-10T04:05:31.424Z,20.04
2018-07-10T04:08:04.747Z,20.22
2018-07-10T04:10:36.756Z,19.87
2018-07-10T04:13:12.419Z,19.41
2018-07-10T04:15:45.574Z,19.64
2018-07-10T04:18:17.182Z,20.33
2018-07-10T04:21:05.408Z,20.71
2018-07-10T04:23:38.546Z,20.86
2018-07-10T04:26:17.000Z,21.51
2018-07-10T04:29:27.045Z,21.87
2018-07-10T04:31:59.847Z,21.53
2018-07-10T04:34:34.216Z,21.78
2018-07-10T04:37:10.885Z,21.92
2018-07-10T04:39:42.879Z,22.43
2018-07-10T04:42:20.406Z,22.53
2018-07-10T04:45:00.351Z,23.02
2018-07-10T04:47:40.950Z,23.16
2018-07-10T04:50:21.076Z,22.99
2018-07-10T04:53:02.644Z,23.28
2018-07-10T04:55:36.129Z,23.66
2018-07-10T04:58:10.150Z,23.38
2018-07-10T05:00:47.076Z,24.07
2018-07-10T05:03:19.094Z,23.49
2018-07-10T05:05:49.858Z,23.64
2018-07-10T05:08:21.637Z,24.13
2018-07-10T05:10:53.612Z,24.41
2018-07-10T05:13:25.903Z,24.73
2018-07-10T05:16:02.200Z,25.00
2018-07-10T05:18:33.704Z,25.21
2018-07-10T05:21:11.013Z,25.38
2018-07-10T05:23:41.776Z,25.87
2018-07-10T05:26:16.193Z,25.63
2018-07-10T05:28:52.519Z,25.79
2018-07-10T05:31:23.507Z,26.52
2018-07-10T05:33:54.214Z,26.57
2018-07-10T05:36:25.507Z,26.31
2018-07-10T05:39:01.498Z,26.54
2018-07-10T05:41:32.210Z,27.32
2018-07-10T05:44:03.104Z,27.08
2018-07-10T05:46:33.733Z,26.77
2018-07-10T05:49:05.859Z,26.25
2018-07-10T05:51:39.194Z,27.65
2018-07-10T05:54:09.764Z,27.48
2018-07-10T05:56:40.484Z,27.76
2018-07-10T05:59:11.173Z,28.07
2018-07-10T06:01:42.865Z,28.35
2018-07-10T06:04:16.454Z,27.75
2018-07-10T06:06:48.061Z,28.52
2018-07-10T06:09:19.458Z,28.54
2018-07-10T06:11:50.258Z,28.87
2018-07-10T06:14:20.797Z,28.58
2018-07-10T06:16:53.871Z,28.50
2018-07-10T06:19:24.474Z,28.89
2018-07-10T06:21:55.501Z,29.17
2018-07-10T06:24:28.072Z,29.48
2018-07-10T06:27:00.116Z,29.61
2018-07-10T06:29:50.563Z,30.00
2018-07-10T06:32:23.027Z,30.33
2018-07-10T06:34:59.963Z,29.71
2018-07-10T06:37:34.192Z,30.11
2018-07-10T06:40:07.066Z,30.08
2018-07-10T06:43:47.146Z,30.44
2018-07-10T06:46:18.973Z,29.87
2018-07-10T06:48:52.372Z,29.95
2018-07-10T06:51:22.949Z,30.48
2018-07-10T06:53:56.444Z,29.98
2018-07-10T06:56:29.408Z,29.53
2018-07-10T06:58:59.980Z,29.97
2018-07-10T07:01:30.530Z,30.85
2018-07-10T07:04:02.327Z,30.98
2018-07-10T07:06:33.082Z,31.21
2018-07-10T07:09:03.713Z,30.57
2018-07-10T07:11:34.273Z,32.19
2018-07-10T07:14:04.842Z,30.57
2018-07-10T07:16:35.729Z,31.03
2018-07-10T07:19:06.386Z,30.79
2018-07-10T07:21:36.918Z,31.74
2018-07-10T07:24:07.405Z,31.77
2018-07-10T07:26:38.124Z,31.52
2018-07-10T07:29:08.768Z,31.40
2018-07-10T07:31:39.510Z,32.09
2018-07-10T07:34:10.288Z,31.55
2018-07-10T07:36:41.215Z,31.18
2018-07-10T07:39:12.035Z,31.15
2018-07-10T07:41:42.858Z,31.94
2018-07-10T07:44:14.226Z,31.95
2018-07-10T07:46:46.186Z,32.18
2018-07-10T07:49:17.537Z,32.24
2018-07-10T07:51:48.463Z,32.98
2018-07-10T07:54:19.189Z,33.22
2018-07-10T07:56:49.920Z,33.66
2018-07-10T07:59:20.587Z,32.62
2018-07-10T08:01:51.192Z,31.69
2018-07-10T08:04:21.995Z,32.47
2018-07-10T08:06:52.767Z,32.60
2018-07-10T08:09:23.731Z,33.40
2018-07-10T08:11:54.378Z,33.58
2018-07-10T08:14:25.462Z,32.03
2018-07-10T08:16:56.272Z,33.03
2018-07-10T08:19:26.668Z,32.87
2018-07-10T08:21:57.266Z,32.97
2018-07-10T08:24:27.865Z,33.61
2018-07-10T08:26:59.743Z,33.30
2018-07-10T08:29:31.522Z,32.61
2018-07-10T08:32:02.332Z,32.91
2018-07-10T08:34:32.920Z,33.77
2018-07-10T08:37:03.345Z,35.11
2018-07-10T08:39:33.925Z,34.38
2018-07-10T08:42:07.519Z,33.55
2018-07-10T08:44:38.188Z,35.27
2018-07-10T08:47:09.491Z,33.81
2018-07-10T08:49:41.352Z,34.61
2018-07-10T08:52:13.268Z,35.38
2018-07-10T08:54:43.779Z,34.55
2018-07-10T08:57:14.585Z,35.28
2018-07-10T08:59:46.336Z,34.34
2018-07-10T09:02:16.862Z,35.55
2018-07-10T09:04:47.468Z,34.11
2018-07-10T09:07:18.106Z,33.65
2018-07-10T09:09:48.660Z,34.02
2018-07-10T09:12:19.310Z,32.39
2018-07-10T09:14:49.983Z,31.92
2018-07-10T09:17:21.353Z,33.28
2018-07-10T09:19:52.218Z,33.58
2018-07-10T09:22:22.837Z,34.23
2018-07-10T09:24:56.541Z,34.59
2018-07-10T09:27:27.763Z,34.93
2018-07-10T09:29:58.424Z,34.16
2018-07-10T09:32:33.995Z,33.57
2018-07-10T09:35:04.761Z,33.01
2018-07-10T09:37:40.332Z,31.24
2018-07-10T09:40:16.993Z,30.74
2018-07-10T09:43:01.263Z,32.01
2018-07-10T09:45:35.101Z,32.77
2018-07-10T09:48:06.480Z,33.24
2018-07-10T09:50:37.756Z,34.06
2018-07-10T09:53:08.870Z,33.31
2018-07-10T09:55:39.412Z,33.19
2018-07-10T09:58:09.982Z,34.07
2018-07-10T10:00:45.648Z,34.38
2018-07-10T10:03:16.242Z,35.00
2018-07-10T10:05:46.898Z,34.10
2018-07-10T10:08:19.366Z,33.79
2018-07-10T10:10:50.730Z,34.26
2018-07-10T10:13:21.464Z,33.02
2018-07-10T10:15:52.040Z,32.37
2018-07-10T10:18:22.796Z,33.08
2018-07-10T10:20:54.103Z,32.47
2018-07-10T10:23:24.678Z,32.00
2018-07-10T10:25:55.455Z,32.41
2018-07-10T10:28:26.633Z,30.95
2018-07-10T10:30:57.425Z,31.45
2018-07-10T10:33:28.130Z,30.69
2018-07-10T10:35:58.676Z,31.06
2018-07-10T10:38:29.525Z,29.94
2018-07-10T10:41:00.744Z,30.76
2018-07-10T10:43:31.883Z,30.74
2018-07-10T10:46:02.604Z,30.00
2018-07-10T10:48:34.182Z,30.50
2018-07-10T10:51:04.769Z,31.12
2018-07-10T10:53:35.570Z,31.55
2018-07-10T10:56:06.613Z,32.84
2018-07-10T10:58:37.462Z,32.73
2018-07-10T11:01:08.256Z,33.80
2018-07-10T11:03:38.880Z,33.29
2018-07-10T11:06:10.482Z,34.84
2018-07-10T11:08:41.265Z,34.08
2018-07-10T11:11:12.624Z,33.73
2018-07-10T11:13:43.229Z,34.92
2018-07-10T11:16:15.258Z,35.68
2018-07-10T11:20:02.067Z,36.04
2018-07-10T11:22:32.744Z,35.07
2018-07-10T11:25:07.116Z,34.57
2018-07-10T11:27:47.422Z,33.42
2018-07-10T11:30:18.004Z,34.71
2018-07-10T11:32:48.541Z,33.48
2018-07-10T11:35:19.075Z,33.19
2018-07-10T11:37:49.628Z,31.77
2018-07-10T11:40:20.499Z,32.44
2018-07-10T11:42:51.117Z,30.51
2018-07-10T11:45:21.734Z,30.51
2018-07-10T11:47:52.204Z,30.79
2018-07-10T11:50:22.988Z,29.91
2018-07-10T11:52:53.689Z,29.56
2018-07-10T11:55:24.227Z,30.22
2018-07-10T11:57:54.951Z,29.85
2018-07-10T12:00:25.738Z,29.67
2018-07-10T12:02:56.303Z,29.67
2018-07-10T12:05:26.973Z,29.10
2018-07-10T12:08:01.266Z,28.60
2018-07-10T12:10:33.046Z,28.35
2018-07-10T12:13:03.693Z,28.42
2018-07-10T12:15:34.308Z,28.80
2018-07-10T12:18:05.943Z,28.88
2018-07-10T12:20:41.289Z,29.18
2018-07-10T12:23:12.964Z,29.44
2018-07-10T12:25:44.954Z,29.63
2018-07-10T12:28:16.215Z,29.01
2018-07-10T12:30:46.879Z,29.38
2018-07-10T12:33:18.481Z,28.91
2018-07-10T12:35:49.032Z,28.92
2018-07-10T12:38:19.753Z,29.01
2018-07-10T12:40:50.343Z,29.51
2018-07-10T12:43:20.989Z,29.67
2018-07-10T12:45:51.792Z,29.04
2018-07-10T12:48:22.523Z,29.12
2018-07-10T12:50:54.090Z,29.44
2018-07-10T12:53:26.073Z,29.47
2018-07-10T12:55:57.099Z,28.98
2018-07-10T12:58:28.048Z,29.08
2018-07-10T13:00:58.755Z,28.95
2018-07-10T13:03:30.366Z,28.87
2018-07-10T13:06:00.904Z,28.63
2018-07-10T13:08:31.581Z,28.58
2018-07-10T13:11:01.990Z,28.60
2018-07-10T13:13:32.507Z,28.30
2018-07-10T13:16:03.293Z,28.54
2018-07-10T13:18:35.078Z,28.69
2018-07-10T13:21:06.834Z,28.81
2018-07-10T13:23:37.386Z,28.66
2018-07-10T13:26:08.019Z,28.48
2018-07-10T13:28:38.528Z,28.30
2018-07-10T13:31:08.982Z,28.23
2018-07-10T13:33:39.716Z,28.40
2018-07-10T13:36:10.251Z,28.40
2018-07-10T13:38:41.007Z,28.57
2018-07-10T13:41:12.746Z,29.02
2018-07-10T13:43:43.433Z,29.12
2018-07-10T13:46:40.137Z,29.11
2018-07-10T13:49:10.795Z,29.51
2018-07-10T13:51:41.330Z,29.49
2018-07-10T13:54:11.907Z,29.52
2018-07-10T13:56:42.641Z,28.99
2018-07-10T13:59:13.264Z,29.19
2018-07-10T14:01:44.075Z,28.97
2018-07-10T14:04:14.691Z,28.91
2018-07-10T14:06:45.244Z,28.64
2018-07-10T14:09:15.903Z,28.63
2018-07-10T14:11:46.511Z,28.61
2018-07-10T14:14:17.323Z,27.97
2018-07-10T14:16:48.071Z,27.63
2018-07-10T14:19:18.599Z,27.57
2018-07-10T14:21:49.265Z,27.49
2018-07-10T14:24:19.716Z,27.29
2018-07-10T14:26:50.224Z,27.32
2018-07-10T14:29:20.775Z,27.37
2018-07-10T14:31:51.474Z,27.22
2018-07-10T14:34:22.041Z,27.16
2018-07-10T14:36:52.726Z,27.18
2018-07-10T14:39:23.377Z,27.33
2018-07-10T14:41:54.331Z,27.24
2018-07-10T14:44:25.783Z,27.23
2018-07-10T14:46:56.414Z,27.20
2018-07-10T14:49:27.260Z,27.20
2018-07-10T14:51:58.413Z,27.22
2018-07-10T14:54:29.041Z,27.12
2018-07-10T14:56:59.943Z,27.18
2018-07-10T14:59:30.647Z,27.11
2018-07-10T15:02:01.385Z,27.07
2018-07-10T15:04:32.039Z,26.96
2018-07-10T15:07:02.740Z,26.93
2018-07-10T15:09:34.161Z,26.79
2018-07-10T15:12:05.235Z,26.86
2018-07-10T15:14:35.588Z,26.93
2018-07-10T15:17:11.867Z,26.96
2018-07-10T15:19:42.416Z,27.04
2018-07-10T15:22:12.864Z,27.00
2018-07-10T15:24:43.245Z,26.90
2018-07-10T15:27:13.856Z,27.00
2018-07-10T15:29:44.630Z,26.90
2018-07-10T15:32:15.198Z,26.94
2018-07-10T15:34:46.037Z,26.91
2018-07-10T15:37:16.715Z,26.83
2018-07-10T15:39:47.405Z,26.73
2018-07-10T15:42:18.006Z,26.85
2018-07-10T15:44:48.784Z,26.89
2018-07-10T15:47:19.483Z,26.85
2018-07-10T15:49:50.013Z,26.83
2018-07-10T15:52:21.118Z,26.73
2018-07-10T15:54:51.600Z,26.63
2018-07-10T15:57:22.139Z,26.71
2018-07-10T15:59:52.886Z,26.67
2018-07-10T16:02:23.591Z,26.54
2018-07-10T16:04:54.618Z,26.62
2018-07-10T16:07:25.274Z,26.70
2018-07-10T16:09:56.053Z,26.62
2018-07-10T16:12:26.926Z,26.60
2018-07-10T16:14:57.631Z,26.62
2018-07-10T16:17:29.433Z,26.70
2018-07-10T16:20:05.859Z,26.64
2018-07-10T16:22:38.752Z,26.78
2018-07-10T16:25:32.293Z,26.91
2018-07-10T16:28:11.309Z,26.83
2018-07-10T16:30:41.946Z,26.73
2018-07-10T16:33:14.348Z,26.52
2018-07-10T16:35:45.032Z,26.50
2018-07-10T16:38:15.568Z,26.57
2018-07-10T16:40:50.516Z,26.53
2018-07-10T16:43:30.743Z,26.41
2018-07-10T16:46:03.823Z,26.43
2018-07-10T16:49:44.122Z,26.40
2018-07-10T16:52:56.638Z,26.28
2018-07-10T16:55:28.459Z,26.22
2018-07-10T16:57:59.177Z,25.88
2018-07-10T17:00:30.281Z,25.72
2018-07-10T17:03:01.118Z,25.71
2018-07-10T17:05:31.618Z,25.63
2018-07-10T17:08:02.140Z,25.40
2018-07-10T17:10:32.691Z,25.22
2018-07-10T17:13:03.392Z,25.16
2018-07-10T17:15:34.279Z,25.01
2018-07-10T17:18:04.974Z,24.87
2018-07-10T17:20:35.582Z,24.71
2018-07-10T17:23:06.557Z,24.61
2018-07-10T17:25:37.304Z,24.53
2018-07-10T17:28:09.641Z,24.42
2018-07-10T17:30:40.383Z,24.38
2018-07-10T17:33:11.166Z,24.26
2018-07-10T17:35:41.575Z,24.17
2018-07-10T17:38:12.247Z,24.08
2018-07-10T17:40:42.965Z,24.05
2018-07-10T17:43:13.576Z,23.99
2018-07-10T17:45:44.354Z,23.89
2018-07-10T17:48:15.103Z,23.78
2018-07-10T17:50:45.681Z,23.69
2018-07-10T17:53:16.376Z,23.62
2018-07-10T17:55:47.210Z,23.57
2018-07-10T17:58:21.148Z,23.58
2018-07-10T18:00:51.687Z,23.61
2018-07-10T18:03:22.458Z,23.51
2018-07-10T18:05:53.073Z,23.57
2018-07-10T18:08:23.615Z,23.63
2018-07-10T18:10:54.308Z,23.62
2018-07-10T18:13:24.961Z,23.46
2018-07-10T18:15:55.640Z,23.40
2018-07-10T18:18:26.425Z,23.23
2018-07-10T18:20:58.024Z,23.25
2018-07-10T18:23:28.469Z,23.18
2018-07-10T18:25:59.170Z,23.11
2018-07-10T18:28:29.985Z,23.15
2018-07-10T18:31:00.525Z,23.14
2018-07-10T18:33:31.277Z,23.11
2018-07-10T18:36:01.913Z,23.11
2018-07-10T18:38:32.796Z,23.08
2018-07-10T18:41:03.292Z,23.14
2018-07-10T18:43:33.759Z,23.03
2018-07-10T18:46:04.420Z,22.97
2018-07-10T18:48:35.091Z,23.07
2018-07-10T18:51:05.775Z,23.02
2018-07-10T18:53:36.678Z,22.43
2018-07-10T18:56:07.317Z,22.95
2018-07-10T18:58:49.913Z,22.93
2018-07-10T19:01:24.311Z,22.93
2018-07-10T19:03:55.036Z,22.93
2018-07-10T19:06:25.925Z,22.95
2018-07-10T19:08:56.489Z,22.96
2018-07-10T19:11:28.449Z,22.83
2018-07-10T19:14:02.111Z,22.73
2018-07-10T19:16:33.145Z,22.78
2018-07-10T19:19:05.391Z,22.75
2018-07-10T19:21:40.059Z,22.68
2018-07-10T19:24:16.736Z,22.73
2018-07-10T19:26:49.253Z,22.73
2018-07-10T19:29:57.427Z,22.83
2018-07-10T19:32:28.035Z,22.85
2018-07-10T19:35:02.555Z,22.84
2018-07-10T19:37:34.356Z,22.80
2018-07-10T19:40:04.710Z,22.81
2018-07-10T19:42:36.086Z,22.72
2018-07-10T19:45:06.806Z,22.72
2018-07-10T19:47:37.593Z,22.65
2018-07-10T19:50:17.219Z,22.76
2018-07-10T19:52:51.715Z,22.78
2018-07-10T19:55:26.139Z,22.83
2018-07-10T19:58:20.335Z,22.88
2018-07-10T20:00:55.502Z,22.92
2018-07-10T20:03:40.714Z,22.86
2018-07-10T20:06:15.904Z,22.87
2018-07-10T20:08:47.473Z,22.80
2018-07-10T20:12:25.713Z,22.64
2018-07-10T20:15:07.950Z,22.46
2018-07-10T20:17:44.880Z,22.44
2018-07-10T20:20:20.118Z,22.31
2018-07-10T20:23:00.191Z,22.23
2018-07-10T20:25:39.006Z,22.21
2018-07-10T20:28:13.798Z,22.24
2018-07-10T20:30:51.408Z,22.11
2018-07-10T20:35:32.951Z,21.98
2018-07-10T20:38:03.743Z,22.02
2018-07-10T20:40:40.090Z,21.91
2018-07-10T20:43:13.713Z,21.80
2018-07-10T20:45:46.141Z,21.78
2018-07-10T20:49:23.906Z,21.76
2018-07-10T20:52:06.234Z,21.60
2018-07-10T20:54:43.435Z,21.64
2018-07-10T20:57:26.282Z,21.57
2018-07-10T21:00:06.959Z,21.53
2018-07-10T21:05:00.748Z,21.46
2018-07-10T21:07:32.512Z,21.24
2018-07-10T21:10:11.107Z,21.11
2018-07-10T21:12:54.227Z,21.13
2018-07-10T21:15:40.946Z,21.07
2018-07-10T21:19:22.218Z,21.11
2018-07-10T21:23:05.836Z,20.98
2018-07-10T21:25:46.122Z,20.76
2018-07-10T21:28:28.321Z,20.65
2018-07-10T21:31:04.282Z,20.61
2018-07-10T21:33:44.397Z,20.43
2018-07-10T21:36:21.485Z,20.40
2018-07-10T21:39:06.277Z,20.35
2018-07-10T21:41:47.657Z,20.38
2018-07-10T21:44:39.080Z,20.37
2018-07-10T21:47:20.343Z,20.31
2018-07-10T21:49:53.647Z,20.27
2018-07-10T21:52:24.706Z,20.21
2018-07-10T21:54:55.102Z,20.10
2018-07-10T21:57:27.998Z,20.13
2018-07-10T22:00:00.591Z,20.18
2018-07-10T22:02:31.384Z,20.11
2018-07-10T22:05:02.064Z,20.07
2018-07-10T22:07:32.832Z,20.06
2018-07-10T22:10:05.933Z,19.96
2018-07-10T22:12:44.415Z,19.91
2018-07-10T22:15:16.785Z,19.87
2018-07-10T22:17:47.848Z,19.80
2018-07-10T22:20:18.530Z,19.83
2018-07-10T22:22:49.563Z,19.79
2018-07-10T22:25:20.081Z,19.76
2018-07-10T22:27:50.504Z,19.84
2018-07-10T22:30:26.293Z,19.84
2018-07-10T22:32:58.469Z,19.82
2018-07-10T22:35:29.097Z,19.82
2018-07-10T22:37:59.668Z,19.75
2018-07-10T22:40:30.429Z,19.75
2018-07-10T22:43:01.910Z,19.90
2018-07-10T22:45:32.963Z,19.85
2018-07-10T22:48:03.631Z,19.80
2018-07-10T22:50:35.086Z,19.73
2018-07-10T22:53:05.861Z,19.84
2018-07-10T22:55:36.769Z,19.75
2018-07-10T22:58:08.785Z,19.77
2018-07-10T23:00:40.416Z,19.74
2018-07-10T23:03:21.060Z,19.66
2018-07-10T23:05:52.318Z,19.53
2018-07-10T23:08:32.836Z,19.49
2018-07-10T23:11:04.571Z,19.42
2018-07-10T23:13:39.010Z,19.47
2018-07-10T23:16:09.407Z,19.43
2018-07-10T23:18:39.985Z,19.36
2018-07-10T23:21:12.986Z,19.42
2018-07-10T23:23:43.373Z,19.39
2018-07-10T23:26:16.568Z,19.26
2018-07-10T23:28:51.422Z,19.35
2018-07-10T23:31:22.296Z,19.39
2018-07-10T23:34:08.048Z,19.37
2018-07-10T23:36:48.605Z,19.44
2018-07-10T23:39:20.117Z,19.48
2018-07-10T23:41:53.541Z,19.51
2018-07-10T23:44:29.719Z,19.40
2018-07-10T23:47:05.030Z,19.49
2018-07-10T23:49:35.836Z,19.48
2018-07-10T23:52:16.752Z,19.46
2018-07-10T23:54:47.203Z,19.34
2018-07-10T23:57:17.924Z,19.37
2018-07-10T23:59:48.668Z,19.20
